| time (UTC) | temp C | wind direction | speed KPH | gust KPH | rain 1hr cm | rain 24hr cm | rain mn cm | humidity % | barometer mb |
| 20260903194523 | 27 | 240 | 0.0 | 4.8 | 0.03 | 4.65 | 3.30 | 77 | 1012.3 |
| 20260903193021 | 27 | 240 | 1.6 | 6.4 | 0.00 | 4.62 | 3.28 | 82 | 1012.4 |
| 20260903191530 | 26 | 240 | 3.2 | 8.0 | 0.10 | 4.62 | 3.28 | 88 | 1012.8 |
| 20260903190018 | 25 | 230 | 4.8 | 14.5 | 0.10 | 4.62 | 3.28 | 90 | 1013.0 |
| 20260903184517 | 25 | 228 | 9.7 | 16.1 | 0.10 | 4.62 | 3.28 | 90 | 1013.5 |
| 20260903183025 | 25 | 217 | 8.0 | 22.5 | 0.05 | 4.57 | 3.23 | 90 | 1014.4 |
| 20260903181515 | 25 | 186 | 17.7 | 38.6 | 0.00 | 4.52 | 3.17 | 89 | 1014.6 |
| 20260903180023 | 26 | 328 | 0.0 | 6.4 | 0.00 | 4.52 | 3.17 | 92 | 1013.5 |
| 20260903174510 | 26 | 328 | 1.6 | 6.4 | 0.00 | 4.52 | 3.17 | 93 | 1013.5 |
| 20260903173009 | 26 | 331 | 1.6 | 9.7 | 0.00 | 4.52 | 3.17 | 94 | 1013.0 |
| 20260903171505 | 26 | 350 | 0.0 | 4.8 | 0.00 | 4.52 | 3.17 | 94 | 1013.2 |
| 20260903170004 | 26 | 350 | 1.6 | 9.7 | 0.00 | 4.52 | 3.17 | 94 | 1013.0 |
| 20260903164502 | 25 | 350 | 1.6 | 6.4 | 0.00 | 4.52 | 3.17 | 94 | 1012.6 |
| 20260903163003 | 25 | 350 | 1.6 | 9.7 | 0.00 | 4.52 | 3.17 | 94 | 1012.7 |
| 20260903161502 | 25 | 349 | 1.6 | 6.4 | 0.00 | 4.52 | 3.17 | 94 | 1013.0 |
| 20260903160105 | 25 | 349 | 1.6 | 8.0 | 0.00 | 4.52 | 3.17 | 94 | 1013.1 |
| 20260903154600 | 25 | 349 | 1.6 | 4.8 | 0.00 | 4.52 | 3.17 | 94 | 1013.1 |
| 20260903153059 | 25 | 349 | 0.0 | 4.8 | 0.00 | 4.52 | 3.17 | 94 | 1013.1 |
| 20260903151556 | 25 | 349 | 1.6 | 3.2 | 0.00 | 4.52 | 3.17 | 94 | 1013.1 |
| 20260903150056 | 24 | 349 | 0.0 | 8.0 | 0.00 | 4.52 | 3.17 | 94 | 1012.9 |
| 20260903144552 | 24 | 349 | 3.2 | 9.7 | 0.00 | 4.52 | 3.17 | 93 | 1012.3 |
| 20260903143052 | 24 | 344 | 3.2 | 8.0 | 0.00 | 4.52 | 3.17 | 93 | 1012.2 |
| 20260903141550 | 24 | 340 | 1.6 | 8.0 | 0.00 | 4.52 | 3.17 | 93 | 1012.2 |
| 20260903140049 | 23 | 340 | 3.2 | 6.4 | 0.30 | 4.52 | 3.17 | 94 | 1011.9 |
| 20260903134610 | 23 | 341 | 3.2 | 6.4 | 0.33 | 4.52 | 3.17 | 93 | 1011.9 |
| 20260903133052 | 23 | 340 | 3.2 | 12.9 | 0.33 | 4.52 | 3.17 | 93 | 1011.7 |
| 20260903131548 | 23 | 329 | 1.6 | 12.9 | 0.33 | 4.52 | 3.17 | 93 | 1011.6 |
| 20260903130146 | 23 | 355 | 1.6 | 8.0 | 0.10 | 4.27 | 2.90 | 92 | 1012.1 |
| 20260903124553 | 23 | 344 | 3.2 | 8.0 | 0.05 | 4.19 | 2.84 | 92 | 1011.6 |
| 20260903123042 | 24 | 360 | 3.2 | 9.7 | 0.15 | 4.19 | 2.84 | 92 | 1011.7 |
| 20260903121549 | 25 | 85 | 9.7 | 20.9 | 0.23 | 4.19 | 2.84 | 92 | 1011.8 |
| 20260903120047 | 25 | 304 | 3.2 | 16.1 | 0.43 | 4.17 | 2.82 | 92 | 1011.5 |
| 20260903114545 | 25 | 304 | 3.2 | 9.7 | 2.59 | 4.14 | 2.79 | 91 | 1011.8 |
| 20260903113035 | 25 | 298 | 4.8 | 12.9 | 2.69 | 4.04 | 2.69 | 91 | 1011.7 |
| 20260903111534 | 25 | 140 | 1.6 | 8.0 | 2.59 | 3.94 | 2.59 | 90 | 1011.9 |
| 20260903110031 | 25 | 141 | 1.6 | 12.9 | 2.36 | 3.71 | 2.36 | 90 | 1012.2 |
| 20260903104528 | 25 | 167 | 9.7 | 16.1 | 0.18 | 1.52 | 0.18 | 89 | 1012.0 |
| 20260903103027 | 25 | 306 | 1.6 | 6.4 | 0.00 | 1.35 | 0.00 | 88 | 1011.1 |
| 20260903101525 | 25 | 305 | 1.6 | 8.0 | 0.00 | 1.35 | 0.00 | 88 | 1011.3 |
| 20260903100026 | 25 | 302 | 3.2 | 8.0 | 0.00 | 1.35 | 0.00 | 88 | 1011.0 |
| 20260903094518 | 25 | 302 | 1.6 | 6.4 | 0.00 | 1.35 | 0.00 | 88 | 1010.9 |
| 20260903093015 | 25 | 302 | 3.2 | 8.0 | 0.00 | 1.35 | 0.00 | 88 | 1011.2 |
| 20260903091517 | 25 | 302 | 3.2 | 9.7 | 0.00 | 1.35 | 0.00 | 88 | 1011.3 |
| 20260903090011 | 25 | 302 | 3.2 | 6.4 | 0.00 | 1.35 | 0.00 | 87 | 1011.5 |
| 20260903084511 | 25 | 302 | 3.2 | 9.7 | 0.00 | 1.35 | 0.00 | 87 | 1011.5 |
| 20260903083010 | 25 | 302 | 1.6 | 9.7 | 0.00 | 1.35 | 0.00 | 87 | 1011.7 |
| 20260903081508 | 25 | 301 | 3.2 | 8.0 | 0.00 | 1.35 | 0.00 | 88 | 1011.9 |
| 20260903080007 | 25 | 301 | 0.0 | 4.8 | 0.00 | 1.35 | 0.00 | 88 | 1012.1 |
| 20260903074507 | 25 | 301 | 3.2 | 6.4 | 0.00 | 1.35 | 0.00 | 88 | 1012.1 |
| 20260903073004 | 25 | 300 | 3.2 | 8.0 | 0.00 | 1.35 | 0.00 | 88 | 1012.3 |
| 20260903071502 | 25 | 300 | 1.6 | 8.0 | 0.00 | 1.35 | 0.00 | 88 | 1012.2 |
| 20260903070112 | 25 | 300 | 3.2 | 6.4 | 0.00 | 1.35 | 0.00 | 89 | 1012.2 |
| 20260903064557 | 25 | 299 | 3.2 | 6.4 | 0.00 | 1.35 | 1.35 | 89 | 1012.3 |
| 20260903063107 | 25 | 298 | 3.2 | 8.0 | 0.00 | 1.35 | 1.35 | 89 | 1012.2 |
| 20260903061606 | 25 | 295 | 1.6 | 11.3 | 0.00 | 1.35 | 1.35 | 89 | 1012.0 |
| 20260903060055 | 26 | 291 | 3.2 | 11.3 | 0.00 | 1.35 | 1.35 | 89 | 1012.0 |
| 20260903054602 | 25 | 288 | 1.6 | 6.4 | 0.00 | 1.35 | 1.35 | 89 | 1012.1 |
| 20260903053056 | 25 | 288 | 3.2 | 8.0 | 0.00 | 1.35 | 1.35 | 89 | 1012.2 |
| 20260903051555 | 25 | 286 | 1.6 | 8.0 | 0.00 | 1.35 | 1.35 | 89 | 1012.5 |
| 20260903050053 | 25 | 279 | 1.6 | 6.4 | 0.00 | 1.35 | 1.35 | 90 | 1012.5 |
| 20260903044556 | 26 | 276 | 1.6 | 9.7 | 0.00 | 1.35 | 1.35 | 90 | 1012.6 |
| 20260903043051 | 26 | 273 | 1.6 | 9.7 | 0.00 | 1.35 | 1.35 | 90 | 1012.4 |
| 20260903041607 | 26 | 273 | 3.2 | 9.7 | 0.03 | 1.35 | 1.35 | 90 | 1012.4 |
| 20260903040051 | 26 | 268 | 3.2 | 11.3 | 0.03 | 1.35 | 1.35 | 90 | 1012.3 |
| 20260903034550 | 26 | 259 | 3.2 | 6.4 | 0.03 | 1.35 | 1.35 | 90 | 1012.2 |
| 20260903033121 | 26 | 257 | 3.2 | 9.7 | 0.03 | 1.35 | 1.35 | 90 | 1012.0 |
| 20260903031620 | 26 | 254 | 1.6 | 8.0 | 0.00 | 1.32 | 1.32 | 90 | 1011.9 |
| 20260903030048 | 26 | 251 | 3.2 | 8.0 | 0.00 | 1.32 | 1.32 | 90 | 1011.7 |
| 20260903024548 | 26 | 213 | 1.6 | 6.4 | 0.00 | 1.32 | 1.32 | 90 | 1011.5 |
| 20260903023047 | 26 | 193 | 1.6 | 8.0 | 0.00 | 1.32 | 1.32 | 90 | 1011.3 |
| 20260903021547 | 26 | 193 | 1.6 | 6.4 | 0.00 | 1.32 | 1.32 | 89 | 1011.0 |
| 20260903020052 | 26 | 193 | 0.0 | 3.2 | 0.03 | 1.32 | 1.32 | 89 | 1010.9 |
| 20260903014606 | 26 | 193 | 0.0 | 3.2 | 0.03 | 1.32 | 1.32 | 89 | 1010.9 |
| 20260903013059 | 26 | 193 | 1.6 | 3.2 | 0.03 | 1.32 | 1.32 | 88 | 1010.6 |
| 20260903011611 | 26 | 193 | 1.6 | 4.8 | 0.03 | 1.32 | 1.32 | 87 | 1010.4 |
| 20260903010059 | 26 | 193 | 1.6 | 4.8 | 0.00 | 1.30 | 1.30 | 87 | 1010.5 |
| 20260903004541 | 26 | 193 | 1.6 | 4.8 | 0.00 | 1.30 | 1.30 | 87 | 1010.8 |
| 20260903003038 | 26 | 193 | 1.6 | 4.8 | 0.00 | 1.30 | 1.30 | 87 | 1011.2 |
| 20260903001546 | 26 | 193 | 1.6 | 4.8 | 0.00 | 1.30 | 1.30 | 87 | 1011.5 |
| 20260903000035 | 26 | 197 | 3.2 | 6.4 | 0.00 | 1.30 | 1.30 | 88 | 1011.9 |
| 20260902234634 | 26 | 197 | 3.2 | 6.4 | 0.00 | 1.30 | 1.30 | 89 | 1012.1 |
| 20260902233036 | 26 | 198 | 1.6 | 4.8 | 0.03 | 1.30 | 1.30 | 89 | 1011.6 |
| 20260902231544 | 26 | 198 | 4.8 | 11.3 | 0.03 | 1.30 | 1.30 | 89 | 1011.8 |
| 20260902230036 | 26 | 196 | 1.6 | 6.4 | 0.33 | 1.30 | 1.30 | 90 | 1012.4 |
| 20260902224531 | 26 | 196 | 3.2 | 6.4 | 0.97 | 1.30 | 1.30 | 88 | 1012.3 |
| 20260902223039 | 26 | 196 | 4.8 | 9.7 | 0.94 | 1.27 | 1.27 | 88 | 1012.2 |
| 20260902221532 | 26 | 210 | 8.0 | 16.1 | 0.94 | 1.27 | 1.27 | 86 | 1011.8 |
| 20260902220034 | 27 | 182 | 17.7 | 33.8 | 0.56 | 0.86 | 0.86 | 79 | 1012.4 |
| 20260902214530 | 28 | 159 | 8.0 | 24.1 | 0.33 | 0.33 | 0.33 | 78 | 1011.7 |
| 20260902213026 | 27 | 238 | 12.9 | 20.9 | 0.33 | 0.33 | 0.33 | 86 | 1011.9 |
| 20260902211529 | 26 | 230 | 14.5 | 29.0 | 0.33 | 0.33 | 0.33 | 85 | 1011.8 |
| 20260902210022 | 28 | 231 | 14.5 | 25.7 | 0.30 | 0.30 | 0.30 | 77 | 1012.4 |
| 20260902204520 | 28 | 148 | 9.7 | 25.7 | 0.00 | 0.00 | 0.00 | 71 | 1013.1 |
| 20260902203019 | 30 | 204 | 14.5 | 35.4 | 0.00 | 0.00 | 0.00 | 70 | 1013.0 |
| 20260902201518 | 32 | 203 | 22.5 | 37.0 | 0.00 | 0.00 | 0.00 | 62 | 1013.1 |
| 20260902200019 | 35 | 156 | 12.9 | 22.5 | 0.00 | 0.00 | 0.00 | 56 | 1012.1 |